sensor_id;sensor_type;location;lat;lon;timestamp;P1;durP1;ratioP1;P2;durP2;ratioP2
58468;SDS011;44257;44.804;10.220;2022-07-29T05:32:38;5.93;;;3.90;;
58468;SDS011;44257;44.804;10.220;2022-07-29T05:35:06;7.32;;;4.45;;
58468;SDS011;44257;44.804;10.220;2022-07-29T05:37:32;5.68;;;3.03;;
58468;SDS011;44257;44.804;10.220;2022-07-29T05:40:02;16.70;;;4.07;;
58468;SDS011;44257;44.804;10.220;2022-07-29T05:42:29;7.28;;;3.95;;
58468;SDS011;44257;44.804;10.220;2022-07-29T05:44:55;6.68;;;4.63;;
58468;SDS011;44257;44.804;10.220;2022-07-29T05:47:21;9.55;;;4.60;;
58468;SDS011;44257;44.804;10.220;2022-07-29T05:49:51;7.72;;;4.55;;
58468;SDS011;44257;44.804;10.220;2022-07-29T05:52:18;10.15;;;4.70;;
58468;SDS011;44257;44.804;10.220;2022-07-29T05:57:18;7.38;;;4.22;;
58468;SDS011;44257;44.804;10.220;2022-07-29T05:59:47;5.97;;;4.78;;
58468;SDS011;44257;44.804;10.220;2022-07-29T06:02:14;6.20;;;4.20;;
58468;SDS011;44257;44.804;10.220;2022-07-29T06:04:42;5.45;;;3.95;;
58468;SDS011;44257;44.804;10.220;2022-07-29T06:07:08;6.03;;;3.83;;
58468;SDS011;44257;44.804;10.220;2022-07-29T06:09:34;7.38;;;4.07;;
58468;SDS011;44257;44.804;10.220;2022-07-29T06:12:00;4.35;;;3.38;;
58468;SDS011;44257;44.804;10.220;2022-07-29T06:14:32;8.38;;;4.57;;
58468;SDS011;44257;44.804;10.220;2022-07-29T06:17:21;4.47;;;3.50;;
58468;SDS011;44257;44.804;10.220;2022-07-29T06:19:46;8.50;;;5.15;;
58468;SDS011;44257;44.804;10.220;2022-07-29T06:22:14;8.95;;;5.10;;
58468;SDS011;44257;44.804;10.220;2022-07-29T06:24:41;10.63;;;5.18;;
58468;SDS011;44257;44.804;10.220;2022-07-29T06:27:10;5.75;;;4.35;;
58468;SDS011;44257;44.804;10.220;2022-07-29T06:29:36;6.50;;;4.35;;
58468;SDS011;44257;44.804;10.220;2022-07-29T06:32:03;8.20;;;4.00;;
58468;SDS011;44257;44.804;10.220;2022-07-29T06:34:29;5.30;;;4.07;;
58468;SDS011;44257;44.804;10.220;2022-07-29T06:36:55;7.15;;;3.83;;
58468;SDS011;44257;44.804;10.220;2022-07-29T06:39:20;9.93;;;4.15;;
58468;SDS011;44257;44.804;10.220;2022-07-29T06:41:47;7.22;;;4.55;;
58468;SDS011;44257;44.804;10.220;2022-07-29T06:44:14;5.95;;;3.97;;
58468;SDS011;44257;44.804;10.220;2022-07-29T06:46:40;6.68;;;4.07;;
58468;SDS011;44257;44.804;10.220;2022-07-29T06:49:07;9.13;;;4.50;;
58468;SDS011;44257;44.804;10.220;2022-07-29T06:51:33;7.03;;;4.03;;
58468;SDS011;44257;44.804;10.220;2022-07-29T06:54:01;5.75;;;3.92;;
58468;SDS011;44257;44.804;10.220;2022-07-29T06:56:30;6.43;;;4.32;;
58468;SDS011;44257;44.804;10.220;2022-07-29T06:58:57;8.85;;;4.10;;
58468;SDS011;44257;44.804;10.220;2022-07-29T07:01:23;8.25;;;3.88;;
58468;SDS011;44257;44.804;10.220;2022-07-29T07:03:49;4.88;;;3.20;;
58468;SDS011;44257;44.804;10.220;2022-07-29T07:06:15;4.38;;;2.95;;
58468;SDS011;44257;44.804;10.220;2022-07-29T07:08:41;5.65;;;3.63;;
58468;SDS011;44257;44.804;10.220;2022-07-29T07:11:08;5.50;;;3.55;;
58468;SDS011;44257;44.804;10.220;2022-07-29T07:13:34;5.75;;;2.88;;
58468;SDS011;44257;44.804;10.220;2022-07-29T07:16:01;5.40;;;2.67;;
58468;SDS011;44257;44.804;10.220;2022-07-29T07:18:27;4.22;;;2.55;;
58468;SDS011;44257;44.804;10.220;2022-07-29T07:20:53;4.93;;;2.95;;
58468;SDS011;44257;44.804;10.220;2022-07-29T07:23:20;3.85;;;2.33;;
58468;SDS011;44257;44.804;10.220;2022-07-29T07:25:46;9.35;;;3.80;;
58468;SDS011;44257;44.804;10.220;2022-07-29T07:28:14;4.95;;;2.85;;
58468;SDS011;44257;44.804;10.220;2022-07-29T07:30:40;5.32;;;2.70;;
58468;SDS011;44257;44.804;10.220;2022-07-29T07:33:06;9.23;;;3.63;;
58468;SDS011;44257;44.804;10.220;2022-07-29T07:35:32;5.47;;;2.55;;
58468;SDS011;44257;44.804;10.220;2022-07-29T07:37:58;4.72;;;2.55;;
58468;SDS011;44257;44.804;10.220;2022-07-29T07:40:24;5.07;;;2.67;;
58468;SDS011;44257;44.804;10.220;2022-07-29T07:42:50;6.00;;;3.17;;
58468;SDS011;44257;44.804;10.220;2022-07-29T07:45:17;4.63;;;3.08;;
58468;SDS011;44257;44.804;10.220;2022-07-29T07:47:43;3.55;;;2.65;;
58468;SDS011;44257;44.804;10.220;2022-07-29T07:50:09;5.22;;;3.47;;
58468;SDS011;44257;44.804;10.220;2022-07-29T07:52:57;5.13;;;2.90;;
58468;SDS011;44257;44.804;10.220;2022-07-29T07:55:23;4.72;;;2.85;;
58468;SDS011;44257;44.804;10.220;2022-07-29T07:57:50;5.50;;;3.05;;
58468;SDS011;44257;44.804;10.220;2022-07-29T08:00:16;7.22;;;3.45;;
58468;SDS011;44257;44.804;10.220;2022-07-29T08:02:42;3.63;;;2.30;;
58468;SDS011;44257;44.804;10.220;2022-07-29T08:05:10;6.88;;;3.85;;
58468;SDS011;44257;44.804;10.220;2022-07-29T08:07:36;6.07;;;3.38;;
58468;SDS011;44257;44.804;10.220;2022-07-29T08:10:02;5.50;;;3.58;;
58468;SDS011;44257;44.804;10.220;2022-07-29T08:12:29;5.30;;;3.05;;
58468;SDS011;44257;44.804;10.220;2022-07-29T08:14:55;4.70;;;3.17;;
58468;SDS011;44257;44.804;10.220;2022-07-29T08:17:20;4.60;;;2.78;;
58468;SDS011;44257;44.804;10.220;2022-07-29T08:19:46;5.47;;;3.28;;
58468;SDS011;44257;44.804;10.220;2022-07-29T08:22:14;4.90;;;2.45;;
58468;SDS011;44257;44.804;10.220;2022-07-29T08:24:40;5.32;;;3.28;;
58468;SDS011;44257;44.804;10.220;2022-07-29T08:27:12;6.43;;;4.13;;
58468;SDS011;44257;44.804;10.220;2022-07-29T08:29:39;3.80;;;2.67;;
58468;SDS011;44257;44.804;10.220;2022-07-29T08:32:05;4.05;;;2.38;;
58468;SDS011;44257;44.804;10.220;2022-07-29T08:34:31;3.70;;;2.72;;
58468;SDS011;44257;44.804;10.220;2022-07-29T08:36:57;5.78;;;3.00;;
58468;SDS011;44257;44.804;10.220;2022-07-29T08:39:23;8.70;;;3.95;;
58468;SDS011;44257;44.804;10.220;2022-07-29T08:41:50;5.50;;;2.85;;
58468;SDS011;44257;44.804;10.220;2022-07-29T08:44:17;4.35;;;2.17;;
58468;SDS011;44257;44.804;10.220;2022-07-29T08:46:44;2.25;;;1.75;;
58468;SDS011;44257;44.804;10.220;2022-07-29T08:49:10;2.38;;;2.08;;
58468;SDS011;44257;44.804;10.220;2022-07-29T08:51:36;3.28;;;2.25;;
58468;SDS011;44257;44.804;10.220;2022-07-29T08:54:05;6.07;;;3.00;;
58468;SDS011;44257;44.804;10.220;2022-07-29T08:56:33;3.22;;;2.22;;
58468;SDS011;44257;44.804;10.220;2022-07-29T08:59:05;3.78;;;2.45;;
58468;SDS011;44257;44.804;10.220;2022-07-29T09:01:34;2.15;;;1.42;;
58468;SDS011;44257;44.804;10.220;2022-07-29T09:04:04;5.78;;;2.97;;
58468;SDS011;44257;44.804;10.220;2022-07-29T09:06:34;3.92;;;2.50;;
58468;SDS011;44257;44.804;10.220;2022-07-29T09:09:02;4.45;;;2.38;;
58468;SDS011;44257;44.804;10.220;2022-07-29T09:11:29;5.07;;;3.35;;
58468;SDS011;44257;44.804;10.220;2022-07-29T09:13:57;4.57;;;3.58;;
58468;SDS011;44257;44.804;10.220;2022-07-29T09:16:22;5.30;;;2.85;;
58468;SDS011;44257;44.804;10.220;2022-07-29T09:18:48;4.80;;;2.90;;
58468;SDS011;44257;44.804;10.220;2022-07-29T09:21:15;7.30;;;4.10;;
58468;SDS011;44257;44.804;10.220;2022-07-29T09:24:07;3.47;;;2.15;;
58468;SDS011;44257;44.804;10.220;2022-07-29T09:29:08;4.70;;;2.92;;
58468;SDS011;44257;44.804;10.220;2022-07-29T09:31:37;3.77;;;2.60;;
58468;SDS011;44257;44.804;10.220;2022-07-29T09:34:05;5.13;;;2.20;;
58468;SDS011;44257;44.804;10.220;2022-07-29T09:36:41;6.97;;;2.97;;
58468;SDS011;44257;44.804;10.220;2022-07-29T09:39:12;5.43;;;3.10;;
58468;SDS011;44257;44.804;10.220;2022-07-29T09:44:19;4.18;;;1.85;;
58468;SDS011;44257;44.804;10.220;2022-07-29T09:46:58;3.35;;;1.90;;
58468;SDS011;44257;44.804;10.220;2022-07-29T09:49:24;4.70;;;2.60;;
58468;SDS011;44257;44.804;10.220;2022-07-29T09:52:00;3.15;;;1.67;;
58468;SDS011;44257;44.804;10.220;2022-07-29T09:54:29;3.13;;;1.77;;
58468;SDS011;44257;44.804;10.220;2022-07-29T09:56:59;6.97;;;3.67;;
58468;SDS011;44257;44.804;10.220;2022-07-29T09:59:25;5.72;;;2.35;;
58468;SDS011;44257;44.804;10.220;2022-07-29T10:01:51;4.53;;;2.90;;
58468;SDS011;44257;44.804;10.220;2022-07-29T10:04:18;3.92;;;2.38;;
58468;SDS011;44257;44.804;10.220;2022-07-29T10:06:58;4.55;;;2.00;;
58468;SDS011;44257;44.804;10.220;2022-07-29T10:09:26;3.63;;;2.53;;
58468;SDS011;44257;44.804;10.220;2022-07-29T10:12:11;3.45;;;2.30;;
58468;SDS011;44257;44.804;10.220;2022-07-29T10:14:41;3.60;;;2.85;;
58468;SDS011;44257;44.804;10.220;2022-07-29T10:17:08;4.45;;;2.70;;
58468;SDS011;44257;44.804;10.220;2022-07-29T10:19:35;3.90;;;2.28;;
58468;SDS011;44257;44.804;10.220;2022-07-29T10:22:03;4.93;;;3.10;;
58468;SDS011;44257;44.804;10.220;2022-07-29T10:24:33;3.85;;;2.42;;
58468;SDS011;44257;44.804;10.220;2022-07-29T10:27:01;9.82;;;3.53;;
58468;SDS011;44257;44.804;10.220;2022-07-29T10:29:28;5.00;;;2.13;;
58468;SDS011;44257;44.804;10.220;2022-07-29T10:34:57;2.88;;;2.28;;
58468;SDS011;44257;44.804;10.220;2022-07-29T10:37:28;2.70;;;1.83;;
58468;SDS011;44257;44.804;10.220;2022-07-29T10:43:19;4.13;;;2.35;;
58468;SDS011;44257;44.804;10.220;2022-07-29T10:45:46;3.47;;;2.35;;
58468;SDS011;44257;44.804;10.220;2022-07-29T10:48:14;3.00;;;2.10;;
58468;SDS011;44257;44.804;10.220;2022-07-29T10:50:53;4.90;;;2.45;;
58468;SDS011;44257;44.804;10.220;2022-07-29T10:53:47;4.18;;;2.10;;
58468;SDS011;44257;44.804;10.220;2022-07-29T10:56:25;5.43;;;2.03;;
58468;SDS011;44257;44.804;10.220;2022-07-29T11:01:48;4.65;;;2.65;;
58468;SDS011;44257;44.804;10.220;2022-07-29T11:07:08;2.35;;;1.55;;
58468;SDS011;44257;44.804;10.220;2022-07-29T11:09:35;3.03;;;1.63;;
58468;SDS011;44257;44.804;10.220;2022-07-29T11:12:02;2.65;;;1.75;;
58468;SDS011;44257;44.804;10.220;2022-07-29T11:17:19;2.60;;;1.63;;
58468;SDS011;44257;44.804;10.220;2022-07-29T11:19:45;3.03;;;1.70;;
58468;SDS011;44257;44.804;10.220;2022-07-29T11:22:12;3.10;;;2.13;;
58468;SDS011;44257;44.804;10.220;2022-07-29T11:25:14;2.75;;;1.50;;
58468;SDS011;44257;44.804;10.220;2022-07-29T11:27:41;2.45;;;1.38;;
58468;SDS011;44257;44.804;10.220;2022-07-29T11:30:08;1.70;;;0.82;;
58468;SDS011;44257;44.804;10.220;2022-07-29T11:32:37;4.38;;;1.27;;
58468;SDS011;44257;44.804;10.220;2022-07-29T11:35:11;32.53;;;3.38;;
58468;SDS011;44257;44.804;10.220;2022-07-29T11:41:18;2.20;;;1.42;;
58468;SDS011;44257;44.804;10.220;2022-07-29T11:43:48;2.45;;;1.60;;
58468;SDS011;44257;44.804;10.220;2022-07-29T11:46:18;3.08;;;1.20;;
58468;SDS011;44257;44.804;10.220;2022-07-29T11:49:02;1.80;;;1.17;;
58468;SDS011;44257;44.804;10.220;2022-07-29T11:51:30;3.65;;;1.92;;
58468;SDS011;44257;44.804;10.220;2022-07-29T11:53:57;2.85;;;1.48;;
58468;SDS011;44257;44.804;10.220;2022-07-29T11:56:23;3.08;;;1.38;;
58468;SDS011;44257;44.804;10.220;2022-07-29T11:59:05;2.08;;;1.48;;
58468;SDS011;44257;44.804;10.220;2022-07-29T12:01:33;1.63;;;1.02;;
58468;SDS011;44257;44.804;10.220;2022-07-29T12:04:04;3.05;;;1.55;;
58468;SDS011;44257;44.804;10.220;2022-07-29T12:06:30;2.70;;;1.60;;
58468;SDS011;44257;44.804;10.220;2022-07-29T12:08:56;1.35;;;1.00;;
58468;SDS011;44257;44.804;10.220;2022-07-29T12:11:25;2.13;;;1.30;;
58468;SDS011;44257;44.804;10.220;2022-07-29T12:13:52;1.83;;;1.50;;
58468;SDS011;44257;44.804;10.220;2022-07-29T12:16:19;5.15;;;1.50;;
58468;SDS011;44257;44.804;10.220;2022-07-29T12:18:56;4.07;;;1.48;;
58468;SDS011;44257;44.804;10.220;2022-07-29T12:21:29;1.85;;;1.38;;
58468;SDS011;44257;44.804;10.220;2022-07-29T12:26:36;1.83;;;1.10;;
58468;SDS011;44257;44.804;10.220;2022-07-29T12:29:16;2.00;;;1.13;;
58468;SDS011;44257;44.804;10.220;2022-07-29T12:31:42;2.58;;;1.50;;
58468;SDS011;44257;44.804;10.220;2022-07-29T12:34:12;4.25;;;1.95;;
58468;SDS011;44257;44.804;10.220;2022-07-29T12:36:41;1.88;;;1.27;;
58468;SDS011;44257;44.804;10.220;2022-07-29T12:39:08;3.75;;;1.52;;
58468;SDS011;44257;44.804;10.220;2022-07-29T12:41:35;2.55;;;1.15;;
58468;SDS011;44257;44.804;10.220;2022-07-29T12:44:02;3.80;;;2.00;;
58468;SDS011;44257;44.804;10.220;2022-07-29T12:46:28;4.50;;;1.90;;
58468;SDS011;44257;44.804;10.220;2022-07-29T12:48:54;1.58;;;1.23;;
58468;SDS011;44257;44.804;10.220;2022-07-29T12:51:37;1.45;;;0.90;;
58468;SDS011;44257;44.804;10.220;2022-07-29T12:56:33;6.88;;;2.63;;
58468;SDS011;44257;44.804;10.220;2022-07-29T12:58:59;1.73;;;1.17;;
58468;SDS011;44257;44.804;10.220;2022-07-29T13:01:36;1.85;;;1.33;;
58468;SDS011;44257;44.804;10.220;2022-07-29T13:04:02;1.52;;;1.20;;
58468;SDS011;44257;44.804;10.220;2022-07-29T13:11:27;2.85;;;1.55;;
58468;SDS011;44257;44.804;10.220;2022-07-29T13:13:57;3.05;;;2.05;;
58468;SDS011;44257;44.804;10.220;2022-07-29T13:16:23;2.67;;;1.55;;
58468;SDS011;44257;44.804;10.220;2022-07-29T13:18:54;4.63;;;1.65;;
58468;SDS011;44257;44.804;10.220;2022-07-29T13:21:29;3.13;;;1.90;;
58468;SDS011;44257;44.804;10.220;2022-07-29T13:23:55;5.55;;;2.50;;
58468;SDS011;44257;44.804;10.220;2022-07-29T13:26:21;2.80;;;2.17;;
58468;SDS011;44257;44.804;10.220;2022-07-29T13:28:47;2.22;;;1.33;;
58468;SDS011;44257;44.804;10.220;2022-07-29T13:31:13;4.30;;;2.63;;
58468;SDS011;44257;44.804;10.220;2022-07-29T13:33:38;4.53;;;3.20;;
58468;SDS011;44257;44.804;10.220;2022-07-29T13:36:04;4.38;;;2.22;;
58468;SDS011;44257;44.804;10.220;2022-07-29T13:38:30;5.25;;;2.60;;
58468;SDS011;44257;44.804;10.220;2022-07-29T13:40:56;3.65;;;2.40;;
58468;SDS011;44257;44.804;10.220;2022-07-29T13:43:23;9.02;;;2.88;;
58468;SDS011;44257;44.804;10.220;2022-07-29T13:45:49;8.95;;;2.53;;
58468;SDS011;44257;44.804;10.220;2022-07-29T13:48:15;3.03;;;2.10;;
58468;SDS011;44257;44.804;10.220;2022-07-29T13:50:41;3.92;;;2.25;;
58468;SDS011;44257;44.804;10.220;2022-07-29T13:53:07;12.82;;;3.35;;
58468;SDS011;44257;44.804;10.220;2022-07-29T13:55:33;4.03;;;2.88;;
58468;SDS011;44257;44.804;10.220;2022-07-29T13:57:59;8.48;;;3.17;;
58468;SDS011;44257;44.804;10.220;2022-07-29T14:00:25;5.80;;;3.22;;
58468;SDS011;44257;44.804;10.220;2022-07-29T14:02:51;3.78;;;2.40;;
58468;SDS011;44257;44.804;10.220;2022-07-29T14:05:20;3.78;;;2.53;;
58468;SDS011;44257;44.804;10.220;2022-07-29T14:07:46;5.18;;;2.95;;
58468;SDS011;44257;44.804;10.220;2022-07-29T14:10:13;4.97;;;2.97;;
58468;SDS011;44257;44.804;10.220;2022-07-29T14:12:38;5.88;;;3.55;;
58468;SDS011;44257;44.804;10.220;2022-07-29T14:15:07;5.20;;;3.30;;
58468;SDS011;44257;44.804;10.220;2022-07-29T14:17:33;6.05;;;2.78;;
58468;SDS011;44257;44.804;10.220;2022-07-29T14:19:59;3.35;;;2.22;;
58468;SDS011;44257;44.804;10.220;2022-07-29T14:22:25;6.13;;;3.13;;
58468;SDS011;44257;44.804;10.220;2022-07-29T14:24:52;6.75;;;3.22;;
58468;SDS011;44257;44.804;10.220;2022-07-29T14:27:17;10.02;;;4.53;;
58468;SDS011;44257;44.804;10.220;2022-07-29T14:29:44;4.53;;;3.13;;
58468;SDS011;44257;44.804;10.220;2022-07-29T14:32:10;5.13;;;2.83;;
58468;SDS011;44257;44.804;10.220;2022-07-29T14:34:37;4.95;;;3.22;;
58468;SDS011;44257;44.804;10.220;2022-07-29T14:37:03;9.98;;;3.65;;
58468;SDS011;44257;44.804;10.220;2022-07-29T14:39:30;4.57;;;2.83;;
58468;SDS011;44257;44.804;10.220;2022-07-29T14:41:56;5.68;;;4.22;;
58468;SDS011;44257;44.804;10.220;2022-07-29T14:44:22;5.47;;;3.38;;
58468;SDS011;44257;44.804;10.220;2022-07-29T14:46:49;4.35;;;3.22;;
58468;SDS011;44257;44.804;10.220;2022-07-29T14:49:15;4.55;;;2.92;;
58468;SDS011;44257;44.804;10.220;2022-07-29T14:51:40;3.45;;;2.30;;
58468;SDS011;44257;44.804;10.220;2022-07-29T14:54:06;4.78;;;2.50;;
58468;SDS011;44257;44.804;10.220;2022-07-29T14:56:32;2.03;;;1.83;;
58468;SDS011;44257;44.804;10.220;2022-07-29T14:58:58;2.22;;;1.45;;
58468;SDS011;44257;44.804;10.220;2022-07-29T15:01:24;3.50;;;0.85;;
58468;SDS011;44257;44.804;10.220;2022-07-29T15:03:50;1.38;;;1.10;;
58468;SDS011;44257;44.804;10.220;2022-07-29T15:06:18;1.45;;;0.88;;
58468;SDS011;44257;44.804;10.220;2022-07-29T15:08:44;7.63;;;1.55;;
58468;SDS011;44257;44.804;10.220;2022-07-29T15:11:10;1.73;;;1.13;;
58468;SDS011;44257;44.804;10.220;2022-07-29T15:13:36;1.35;;;0.90;;
58468;SDS011;44257;44.804;10.220;2022-07-29T15:16:02;0.80;;;0.65;;
58468;SDS011;44257;44.804;10.220;2022-07-29T15:18:29;2.47;;;1.65;;
58468;SDS011;44257;44.804;10.220;2022-07-29T15:20:55;2.25;;;1.05;;
58468;SDS011;44257;44.804;10.220;2022-07-29T15:23:21;4.00;;;1.73;;
58468;SDS011;44257;44.804;10.220;2022-07-29T15:25:47;1.67;;;1.40;;
58468;SDS011;44257;44.804;10.220;2022-07-29T15:28:13;2.25;;;1.73;;
58468;SDS011;44257;44.804;10.220;2022-07-29T15:30:39;1.88;;;0.93;;
58468;SDS011;44257;44.804;10.220;2022-07-29T15:33:06;1.88;;;1.30;;
58468;SDS011;44257;44.804;10.220;2022-07-29T15:35:34;1.83;;;1.30;;
58468;SDS011;44257;44.804;10.220;2022-07-29T15:38:00;1.10;;;0.70;;
58468;SDS011;44257;44.804;10.220;2022-07-29T15:40:26;2.22;;;0.85;;
58468;SDS011;44257;44.804;10.220;2022-07-29T15:42:52;1.98;;;1.08;;
58468;SDS011;44257;44.804;10.220;2022-07-29T15:45:18;2.47;;;1.55;;
58468;SDS011;44257;44.804;10.220;2022-07-29T15:47:44;1.52;;;1.38;;
58468;SDS011;44257;44.804;10.220;2022-07-29T15:50:09;1.98;;;1.73;;
58468;SDS011;44257;44.804;10.220;2022-07-29T15:52:40;1.95;;;1.73;;
58468;SDS011;44257;44.804;10.220;2022-07-29T15:55:07;1.75;;;1.15;;
58468;SDS011;44257;44.804;10.220;2022-07-29T15:57:33;3.55;;;1.70;;
58468;SDS011;44257;44.804;10.220;2022-07-29T15:59:59;6.05;;;2.88;;
58468;SDS011;44257;44.804;10.220;2022-07-29T16:02:26;1.42;;;0.82;;
58468;SDS011;44257;44.804;10.220;2022-07-29T16:04:52;2.45;;;1.50;;
58468;SDS011;44257;44.804;10.220;2022-07-29T16:07:18;3.25;;;2.05;;
58468;SDS011;44257;44.804;10.220;2022-07-29T16:09:44;3.72;;;1.88;;
58468;SDS011;44257;44.804;10.220;2022-07-29T16:12:10;1.70;;;1.00;;
58468;SDS011;44257;44.804;10.220;2022-07-29T16:14:37;1.65;;;0.90;;
58468;SDS011;44257;44.804;10.220;2022-07-29T16:17:03;1.80;;;1.20;;
58468;SDS011;44257;44.804;10.220;2022-07-29T16:19:29;1.27;;;1.15;;
58468;SDS011;44257;44.804;10.220;2022-07-29T16:21:55;2.30;;;1.60;;
58468;SDS011;44257;44.804;10.220;2022-07-29T16:24:21;2.85;;;1.63;;
58468;SDS011;44257;44.804;10.220;2022-07-29T16:26:48;1.45;;;0.77;;
58468;SDS011;44257;44.804;10.220;2022-07-29T16:29:14;2.30;;;1.20;;
58468;SDS011;44257;44.804;10.220;2022-07-29T16:31:42;2.53;;;1.60;;
58468;SDS011;44257;44.804;10.220;2022-07-29T16:34:08;2.47;;;1.42;;
58468;SDS011;44257;44.804;10.220;2022-07-29T16:36:33;2.47;;;1.50;;
58468;SDS011;44257;44.804;10.220;2022-07-29T16:38:59;3.03;;;1.92;;
58468;SDS011;44257;44.804;10.220;2022-07-29T16:41:25;1.05;;;0.73;;
58468;SDS011;44257;44.804;10.220;2022-07-29T16:43:51;3.85;;;2.15;;
58468;SDS011;44257;44.804;10.220;2022-07-29T16:46:17;3.67;;;1.42;;
58468;SDS011;44257;44.804;10.220;2022-07-29T16:48:46;1.50;;;1.15;;
58468;SDS011;44257;44.804;10.220;2022-07-29T16:51:12;2.22;;;1.50;;
58468;SDS011;44257;44.804;10.220;2022-07-29T16:53:38;2.03;;;1.30;;
58468;SDS011;44257;44.804;10.220;2022-07-29T16:56:04;1.35;;;1.00;;
58468;SDS011;44257;44.804;10.220;2022-07-29T16:58:31;1.67;;;1.02;;
58468;SDS011;44257;44.804;10.220;2022-07-29T17:00:57;2.63;;;1.88;;
58468;SDS011;44257;44.804;10.220;2022-07-29T17:03:24;2.83;;;1.58;;
58468;SDS011;44257;44.804;10.220;2022-07-29T17:05:50;2.83;;;1.42;;
58468;SDS011;44257;44.804;10.220;2022-07-29T17:08:16;1.95;;;1.50;;
58468;SDS011;44257;44.804;10.220;2022-07-29T17:10:42;1.20;;;1.08;;
58468;SDS011;44257;44.804;10.220;2022-07-29T17:13:08;1.65;;;0.95;;
58468;SDS011;44257;44.804;10.220;2022-07-29T17:15:34;2.70;;;1.33;;
58468;SDS011;44257;44.804;10.220;2022-07-29T17:18:00;4.22;;;1.60;;
58468;SDS011;44257;44.804;10.220;2022-07-29T17:20:27;2.58;;;1.33;;
58468;SDS011;44257;44.804;10.220;2022-07-29T17:22:53;1.23;;;0.88;;
58468;SDS011;44257;44.804;10.220;2022-07-29T17:25:19;1.00;;;0.88;;
58468;SDS011;44257;44.804;10.220;2022-07-29T17:27:46;2.67;;;1.67;;
58468;SDS011;44257;44.804;10.220;2022-07-29T17:30:14;2.92;;;1.10;;
58468;SDS011;44257;44.804;10.220;2022-07-29T17:32:40;2.88;;;1.25;;
58468;SDS011;44257;44.804;10.220;2022-07-29T17:35:06;2.40;;;1.15;;
58468;SDS011;44257;44.804;10.220;2022-07-29T17:37:52;2.35;;;1.38;;
58468;SDS011;44257;44.804;10.220;2022-07-29T17:40:18;1.55;;;1.23;;
58468;SDS011;44257;44.804;10.220;2022-07-29T17:42:45;3.88;;;1.42;;
58468;SDS011;44257;44.804;10.220;2022-07-29T17:45:11;2.67;;;1.60;;
58468;SDS011;44257;44.804;10.220;2022-07-29T17:47:37;2.13;;;1.45;;
58468;SDS011;44257;44.804;10.220;2022-07-29T17:50:03;1.25;;;1.00;;
58468;SDS011;44257;44.804;10.220;2022-07-29T17:52:30;2.72;;;1.23;;
58468;SDS011;44257;44.804;10.220;2022-07-29T17:54:55;2.38;;;1.55;;
58468;SDS011;44257;44.804;10.220;2022-07-29T17:57:21;4.22;;;2.10;;
58468;SDS011;44257;44.804;10.220;2022-07-29T17:59:47;2.70;;;1.30;;
58468;SDS011;44257;44.804;10.220;2022-07-29T18:02:13;1.30;;;0.98;;
58468;SDS011;44257;44.804;10.220;2022-07-29T18:04:40;2.35;;;1.40;;
58468;SDS011;44257;44.804;10.220;2022-07-29T18:07:06;5.13;;;2.05;;
58468;SDS011;44257;44.804;10.220;2022-07-29T18:09:31;7.32;;;1.85;;
58468;SDS011;44257;44.804;10.220;2022-07-29T18:11:57;3.45;;;1.85;;
58468;SDS011;44257;44.804;10.220;2022-07-29T18:14:23;2.42;;;1.83;;
58468;SDS011;44257;44.804;10.220;2022-07-29T18:16:49;4.60;;;2.40;;
58468;SDS011;44257;44.804;10.220;2022-07-29T18:19:15;3.97;;;1.52;;
58468;SDS011;44257;44.804;10.220;2022-07-29T18:21:41;2.70;;;1.77;;
58468;SDS011;44257;44.804;10.220;2022-07-29T18:24:06;4.22;;;2.17;;
58468;SDS011;44257;44.804;10.220;2022-07-29T18:26:32;2.38;;;1.77;;
58468;SDS011;44257;44.804;10.220;2022-07-29T18:28:59;5.47;;;2.78;;
58468;SDS011;44257;44.804;10.220;2022-07-29T18:31:25;2.35;;;1.85;;
58468;SDS011;44257;44.804;10.220;2022-07-29T18:33:52;4.05;;;2.60;;
58468;SDS011;44257;44.804;10.220;2022-07-29T18:36:18;3.97;;;2.40;;
58468;SDS011;44257;44.804;10.220;2022-07-29T18:38:44;2.92;;;1.95;;
58468;SDS011;44257;44.804;10.220;2022-07-29T18:41:10;1.60;;;1.17;;
58468;SDS011;44257;44.804;10.220;2022-07-29T18:43:36;3.83;;;2.47;;
58468;SDS011;44257;44.804;10.220;2022-07-29T18:46:01;3.67;;;2.00;;
58468;SDS011;44257;44.804;10.220;2022-07-29T18:48:30;2.45;;;1.58;;
58468;SDS011;44257;44.804;10.220;2022-07-29T18:50:58;5.70;;;3.22;;
58468;SDS011;44257;44.804;10.220;2022-07-29T18:53:23;3.28;;;2.10;;
58468;SDS011;44257;44.804;10.220;2022-07-29T18:55:52;2.55;;;1.90;;
58468;SDS011;44257;44.804;10.220;2022-07-29T18:58:17;4.85;;;2.42;;
58468;SDS011;44257;44.804;10.220;2022-07-29T19:00:43;2.83;;;1.85;;
58468;SDS011;44257;44.804;10.220;2022-07-29T19:03:09;2.08;;;1.60;;
58468;SDS011;44257;44.804;10.220;2022-07-29T19:05:35;2.83;;;2.08;;
58468;SDS011;44257;44.804;10.220;2022-07-29T19:08:01;4.50;;;2.30;;
58468;SDS011;44257;44.804;10.220;2022-07-29T19:10:27;5.35;;;3.50;;
58468;SDS011;44257;44.804;10.220;2022-07-29T19:12:53;4.20;;;2.95;;
58468;SDS011;44257;44.804;10.220;2022-07-29T19:15:20;3.55;;;2.05;;
58468;SDS011;44257;44.804;10.220;2022-07-29T19:17:47;3.25;;;2.15;;
58468;SDS011;44257;44.804;10.220;2022-07-29T19:20:13;4.25;;;2.53;;
58468;SDS011;44257;44.804;10.220;2022-07-29T19:22:39;4.35;;;2.97;;
58468;SDS011;44257;44.804;10.220;2022-07-29T19:25:06;5.03;;;2.83;;
58468;SDS011;44257;44.804;10.220;2022-07-29T19:27:32;4.05;;;2.15;;
58468;SDS011;44257;44.804;10.220;2022-07-29T19:29:58;2.55;;;2.03;;
58468;SDS011;44257;44.804;10.220;2022-07-29T19:32:24;3.05;;;2.50;;
58468;SDS011;44257;44.804;10.220;2022-07-29T19:34:50;3.20;;;2.58;;
58468;SDS011;44257;44.804;10.220;2022-07-29T19:37:35;6.40;;;4.55;;
58468;SDS011;44257;44.804;10.220;2022-07-29T19:40:01;7.55;;;2.28;;
58468;SDS011;44257;44.804;10.220;2022-07-29T19:42:29;8.90;;;2.85;;
58468;SDS011;44257;44.804;10.220;2022-07-29T19:44:55;5.32;;;2.70;;
58468;SDS011;44257;44.804;10.220;2022-07-29T19:47:21;4.68;;;2.90;;
58468;SDS011;44257;44.804;10.220;2022-07-29T19:49:47;4.57;;;2.58;;
58468;SDS011;44257;44.804;10.220;2022-07-29T19:52:13;3.42;;;2.03;;
58468;SDS011;44257;44.804;10.220;2022-07-29T19:54:39;6.68;;;2.42;;
58468;SDS011;44257;44.804;10.220;2022-07-29T19:57:05;5.78;;;3.25;;
58468;SDS011;44257;44.804;10.220;2022-07-29T19:59:31;2.55;;;2.17;;
58468;SDS011;44257;44.804;10.220;2022-07-29T20:01:56;2.65;;;2.05;;
58468;SDS011;44257;44.804;10.220;2022-07-29T20:04:23;2.75;;;1.85;;
58468;SDS011;44257;44.804;10.220;2022-07-29T20:06:49;3.90;;;2.40;;
58468;SDS011;44257;44.804;10.220;2022-07-29T20:09:17;8.27;;;3.67;;
58468;SDS011;44257;44.804;10.220;2022-07-29T20:11:43;6.20;;;2.40;;
58468;SDS011;44257;44.804;10.220;2022-07-29T20:14:09;3.72;;;2.47;;
58468;SDS011;44257;44.804;10.220;2022-07-29T20:16:35;4.07;;;3.05;;
58468;SDS011;44257;44.804;10.220;2022-07-29T20:19:01;4.63;;;2.08;;
58468;SDS011;44257;44.804;10.220;2022-07-29T20:21:27;9.52;;;3.05;;
58468;SDS011;44257;44.804;10.220;2022-07-29T20:23:53;2.20;;;1.80;;
58468;SDS011;44257;44.804;10.220;2022-07-29T20:26:20;5.68;;;3.50;;
58468;SDS011;44257;44.804;10.220;2022-07-29T20:28:46;4.75;;;2.97;;
58468;SDS011;44257;44.804;10.220;2022-07-29T20:31:13;3.45;;;1.95;;
58468;SDS011;44257;44.804;10.220;2022-07-29T20:33:40;2.95;;;2.55;;
58468;SDS011;44257;44.804;10.220;2022-07-29T20:36:07;4.13;;;3.38;;
58468;SDS011;44257;44.804;10.220;2022-07-29T20:38:33;2.58;;;1.50;;
58468;SDS011;44257;44.804;10.220;2022-07-29T20:40:59;4.20;;;2.38;;
58468;SDS011;44257;44.804;10.220;2022-07-29T20:43:24;2.40;;;1.67;;